createdAt,value
2023-03-12T00:01:14.571Z,98117.00
2023-03-12T00:03:41.486Z,98108.00
2023-03-12T00:06:10.856Z,98108.00
2023-03-12T00:08:37.628Z,98114.00
2023-03-12T00:11:09.824Z,98100.00
2023-03-12T00:13:36.424Z,98107.00
2023-03-12T00:16:13.982Z,98095.00
2023-03-12T00:18:42.106Z,98099.00
2023-03-12T00:21:10.057Z,98096.00
2023-03-12T00:23:36.951Z,98101.00
2023-03-12T00:26:06.090Z,98101.00
2023-03-12T00:28:33.206Z,98097.00
2023-03-12T00:30:59.686Z,98087.00
2023-03-12T00:33:27.505Z,98089.00
2023-03-12T00:35:54.098Z,98105.00
2023-03-12T00:38:20.729Z,98098.00
2023-03-12T00:40:48.379Z,98091.00
2023-03-12T00:43:15.024Z,98099.00
2023-03-12T00:45:41.635Z,98095.00
2023-03-12T00:48:08.108Z,98103.00
2023-03-12T00:50:34.639Z,98094.00
2023-03-12T00:53:01.195Z,98095.00
2023-03-12T00:55:27.716Z,98095.00
2023-03-12T00:57:54.310Z,98094.00
2023-03-12T01:00:21.433Z,98095.00
2023-03-12T01:02:48.057Z,98096.00
2023-03-12T01:05:15.206Z,98092.00
2023-03-12T01:07:41.952Z,98095.00
2023-03-12T01:10:09.868Z,98098.00
2023-03-12T01:12:37.312Z,98091.00
2023-03-12T01:15:04.435Z,98097.00
2023-03-12T01:17:30.977Z,98097.00
2023-03-12T01:19:58.510Z,98099.00
2023-03-12T01:22:25.026Z,98099.00
2023-03-12T01:24:51.550Z,98094.00
2023-03-12T01:27:18.282Z,98089.00
2023-03-12T01:29:44.819Z,98089.00
2023-03-12T01:32:11.371Z,98090.00
2023-03-12T01:34:37.886Z,98079.00
2023-03-12T01:37:04.452Z,98080.00
2023-03-12T01:39:31.055Z,98080.00
2023-03-12T01:41:57.750Z,98084.00
2023-03-12T01:44:24.340Z,98077.00
2023-03-12T01:46:50.863Z,98067.00
2023-03-12T01:49:28.682Z,98065.00
2023-03-12T01:51:59.515Z,98063.00
2023-03-12T01:54:35.440Z,98059.00
2023-03-12T01:57:04.616Z,98067.00
2023-03-12T01:59:36.990Z,98063.00
2023-03-12T02:02:05.842Z,98058.00
2023-03-12T02:04:33.441Z,98059.00
2023-03-12T02:07:05.824Z,98058.00
2023-03-12T02:09:39.808Z,98055.00
2023-03-12T02:12:07.478Z,98054.00
2023-03-12T02:14:34.571Z,98046.00
2023-03-12T02:17:01.291Z,98042.00
2023-03-12T02:19:38.242Z,98035.00
2023-03-12T02:22:05.338Z,98031.00
2023-03-12T02:24:37.118Z,98042.00
2023-03-12T02:27:05.727Z,98051.00
2023-03-12T02:29:35.655Z,98043.00
2023-03-12T02:32:04.496Z,98057.00
2023-03-12T02:34:31.256Z,98049.00
2023-03-12T02:36:57.878Z,98044.00
2023-03-12T02:39:24.810Z,98046.00
2023-03-12T02:41:55.035Z,98043.00
2023-03-12T02:44:25.552Z,98033.00
2023-03-12T02:46:55.160Z,98032.00
2023-03-12T02:49:25.749Z,98032.00
2023-03-12T02:51:53.351Z,98039.00
2023-03-12T02:54:20.804Z,98033.00
2023-03-12T02:56:48.221Z,98032.00
2023-03-12T02:59:16.588Z,98028.00
2023-03-12T03:01:44.583Z,98035.00
2023-03-12T03:04:11.797Z,98023.00
2023-03-12T03:06:41.291Z,98034.00
2023-03-12T03:09:07.938Z,98032.00
2023-03-12T03:11:34.988Z,98026.00
2023-03-12T03:14:04.367Z,98025.00
2023-03-12T03:16:31.362Z,98021.00
2023-03-12T03:18:58.945Z,98018.00
2023-03-12T03:21:25.582Z,98004.00
2023-03-12T03:23:52.258Z,98018.00
2023-03-12T03:26:21.303Z,98017.00
2023-03-12T03:28:48.538Z,98021.00
2023-03-12T03:31:15.124Z,98022.00
2023-03-12T03:33:43.066Z,98025.00
2023-03-12T03:36:14.837Z,98017.00
2023-03-12T03:38:50.375Z,98026.00
2023-03-12T03:41:20.175Z,98025.00
2023-03-12T03:43:47.465Z,98024.00
2023-03-12T03:46:16.774Z,98034.00
2023-03-12T03:48:47.662Z,98029.00
2023-03-12T03:51:15.231Z,98041.00
2023-03-12T03:53:44.992Z,98039.00
2023-03-12T03:56:16.248Z,98047.00
2023-03-12T03:58:48.696Z,98047.00
2023-03-12T04:01:17.185Z,98050.00
2023-03-12T04:03:45.538Z,98051.00
2023-03-12T04:06:12.637Z,98044.00
2023-03-12T04:08:40.264Z,98051.00
2023-03-12T04:11:16.126Z,98048.00
2023-03-12T04:13:43.335Z,98051.00
2023-03-12T04:16:12.205Z,98033.00
2023-03-12T04:18:40.074Z,98027.00
2023-03-12T04:21:09.468Z,98034.00
2023-03-12T04:23:37.251Z,98028.00
2023-03-12T04:26:05.524Z,98031.00
2023-03-12T04:28:32.521Z,98026.00
2023-03-12T04:31:02.006Z,98030.00
2023-03-12T04:33:37.062Z,98024.00
2023-03-12T04:36:05.010Z,98007.00
2023-03-12T04:38:32.646Z,98005.00
2023-03-12T04:41:04.731Z,98004.00
2023-03-12T04:43:32.835Z,97998.00
2023-03-12T04:45:59.733Z,97998.00
2023-03-12T04:48:27.328Z,97998.00
2023-03-12T04:50:54.476Z,97997.00
2023-03-12T04:53:22.075Z,97990.00
2023-03-12T04:55:50.387Z,97985.00
2023-03-12T04:58:19.447Z,97984.00
2023-03-12T05:00:47.882Z,97977.00
2023-03-12T05:03:15.060Z,97973.00
2023-03-12T05:05:42.244Z,97969.00
2023-03-12T05:08:09.275Z,97973.00
2023-03-12T05:10:36.348Z,97969.00
2023-03-12T05:13:02.847Z,97967.00
2023-03-12T05:15:30.112Z,97964.00
2023-03-12T05:17:57.006Z,97964.00
2023-03-12T05:20:23.542Z,97961.00
2023-03-12T05:22:50.232Z,97960.00
2023-03-12T05:25:17.347Z,97960.00
2023-03-12T05:27:44.060Z,97961.00
2023-03-12T05:30:12.645Z,97967.00
2023-03-12T05:32:39.532Z,97966.00
2023-03-12T05:35:06.242Z,97954.00
2023-03-12T05:37:33.238Z,97969.00
2023-03-12T05:40:00.658Z,97964.00
2023-03-12T05:42:28.081Z,97963.00
2023-03-12T05:44:56.941Z,97966.00
2023-03-12T05:47:23.451Z,97956.00
2023-03-12T05:49:50.517Z,97962.00
2023-03-12T05:52:17.248Z,97953.00
2023-03-12T05:54:43.926Z,97955.00
2023-03-12T05:57:10.564Z,97958.00
2023-03-12T05:59:37.273Z,97945.00
2023-03-12T06:02:05.420Z,97945.00
2023-03-12T06:04:33.112Z,97945.00
2023-03-12T06:07:00.195Z,97945.00
2023-03-12T06:09:27.200Z,97952.00
2023-03-12T06:11:53.929Z,97954.00
2023-03-12T06:14:20.901Z,97960.00
2023-03-12T06:16:48.261Z,97960.00
2023-03-12T06:19:14.864Z,97964.00
2023-03-12T06:21:43.924Z,97963.00
2023-03-12T06:24:11.094Z,97971.00
2023-03-12T06:26:44.728Z,97970.00
2023-03-12T06:29:11.242Z,97977.00
2023-03-12T06:31:39.624Z,97975.00
2023-03-12T06:34:06.253Z,97973.00
2023-03-12T06:36:32.791Z,97974.00
2023-03-12T06:38:59.301Z,97971.00
2023-03-12T06:41:26.009Z,97967.00
2023-03-12T06:43:52.527Z,97972.00
2023-03-12T06:46:21.716Z,97968.00
2023-03-12T06:48:48.811Z,97965.00
2023-03-12T06:51:17.028Z,97974.00
2023-03-12T06:53:45.399Z,97982.00
2023-03-12T06:56:13.332Z,97988.00
2023-03-12T06:58:39.934Z,97986.00
2023-03-12T07:01:07.217Z,97986.00
2023-03-12T07:03:34.074Z,97979.00
2023-03-12T07:06:00.825Z,97982.00
2023-03-12T07:08:30.902Z,97981.00
2023-03-12T07:11:01.117Z,97982.00
2023-03-12T07:13:27.965Z,97977.00
2023-03-12T07:15:54.479Z,97978.00
2023-03-12T07:18:21.243Z,97981.00
2023-03-12T07:20:47.863Z,97969.00
2023-03-12T07:23:14.994Z,97978.00
2023-03-12T07:25:43.233Z,97974.00
2023-03-12T07:28:11.587Z,97976.00
2023-03-12T07:30:38.583Z,97977.00
2023-03-12T07:33:07.809Z,97990.00
2023-03-12T07:35:35.112Z,97986.00
2023-03-12T07:38:03.903Z,97986.00
2023-03-12T07:40:30.490Z,97991.00
2023-03-12T07:42:57.794Z,97998.00
2023-03-12T07:45:25.063Z,97995.00
2023-03-12T07:47:52.026Z,97996.00
2023-03-12T07:50:18.992Z,97997.00
2023-03-12T07:52:46.865Z,97992.00
2023-03-12T07:55:13.865Z,97996.00
2023-03-12T07:57:40.735Z,97996.00
2023-03-12T08:00:13.216Z,97995.00
2023-03-12T08:02:39.887Z,97991.00
2023-03-12T08:05:07.647Z,97993.00
2023-03-12T08:07:35.346Z,98001.00
2023-03-12T08:10:03.648Z,98010.00
2023-03-12T08:12:30.414Z,98001.00
2023-03-12T08:14:56.889Z,98003.00
2023-03-12T08:17:23.428Z,98001.00
2023-03-12T08:19:49.916Z,97998.00
2023-03-12T08:22:16.730Z,97996.00
2023-03-12T08:24:44.150Z,97997.00
2023-03-12T08:27:12.243Z,97994.00
2023-03-12T08:29:39.455Z,97998.00
2023-03-12T08:32:06.197Z,97997.00
2023-03-12T08:34:34.515Z,98003.00
2023-03-12T08:37:01.511Z,98009.00
2023-03-12T08:39:28.000Z,98015.00
2023-03-12T08:41:55.430Z,98008.00
2023-03-12T08:44:23.256Z,98012.00
2023-03-12T08:46:50.076Z,98032.00
2023-03-12T08:49:16.843Z,98029.00
2023-03-12T08:51:43.504Z,98029.00
2023-03-12T08:54:09.999Z,98035.00
2023-03-12T08:56:42.369Z,98031.00
2023-03-12T08:59:13.246Z,98023.00
2023-03-12T09:01:43.140Z,98026.00
2023-03-12T09:04:10.690Z,98028.00
2023-03-12T09:06:38.376Z,98044.00
2023-03-12T09:09:05.315Z,98037.00
2023-03-12T09:11:33.303Z,98047.00
2023-03-12T09:14:53.960Z,98040.00
2023-03-12T09:16:47.679Z,98044.00
2023-03-12T09:19:14.424Z,98047.00
2023-03-12T09:21:41.453Z,98045.00
2023-03-12T09:24:08.210Z,98043.00
2023-03-12T09:26:34.785Z,98043.00
2023-03-12T09:29:01.478Z,98035.00
2023-03-12T09:31:28.228Z,98043.00
2023-03-12T09:33:54.758Z,98034.00
2023-03-12T09:36:21.225Z,98039.00
2023-03-12T09:38:47.735Z,98045.00
2023-03-12T09:41:20.789Z,98048.00
2023-03-12T09:44:10.187Z,98053.00
2023-03-12T09:46:41.192Z,98055.00
2023-03-12T09:49:17.760Z,98047.00
2023-03-12T09:51:49.349Z,98062.00
2023-03-12T09:54:36.469Z,98064.00
2023-03-12T09:57:08.928Z,98066.00
2023-03-12T09:59:36.962Z,98078.00
2023-03-12T10:02:17.856Z,98083.00
2023-03-12T10:04:59.400Z,98084.00
2023-03-12T10:07:36.990Z,98093.00
2023-03-12T10:10:29.705Z,98086.00
2023-03-12T10:13:18.055Z,98092.00
2023-03-12T10:16:06.542Z,98092.00
2023-03-12T10:18:53.940Z,98088.00
2023-03-12T10:21:43.122Z,98090.00
2023-03-12T10:24:12.636Z,98099.00
2023-03-12T10:26:42.996Z,98095.00
2023-03-12T10:29:25.911Z,98106.00
2023-03-12T10:32:11.552Z,98099.00
2023-03-12T10:34:42.973Z,98110.00
2023-03-12T10:37:18.633Z,98099.00
2023-03-12T10:39:45.881Z,98104.00
2023-03-12T10:42:24.105Z,98116.00
2023-03-12T10:45:05.891Z,98113.00
2023-03-12T10:47:42.516Z,98099.00
2023-03-12T10:50:21.471Z,98104.00
2023-03-12T10:52:50.712Z,98112.00
2023-03-12T10:55:26.412Z,98113.00
2023-03-12T10:57:54.149Z,98109.00
2023-03-12T11:00:24.180Z,98124.00
2023-03-12T11:03:05.945Z,98116.00
2023-03-12T11:05:45.466Z,98117.00
2023-03-12T11:08:36.103Z,98116.00
2023-03-12T11:11:05.224Z,98111.00
2023-03-12T11:13:34.662Z,98110.00
2023-03-12T11:16:24.851Z,98114.00
2023-03-12T11:18:56.914Z,98120.00
2023-03-12T11:21:23.737Z,98123.00
2023-03-12T11:23:56.312Z,98106.00
2023-03-12T11:26:53.673Z,98115.00
2023-03-12T11:29:32.891Z,98117.00
2023-03-12T11:32:23.257Z,98126.00
2023-03-12T11:34:51.091Z,98108.00
2023-03-12T11:37:51.978Z,98109.00
2023-03-12T11:40:24.322Z,98116.00
2023-03-12T11:43:15.843Z,98100.00
2023-03-12T11:45:49.322Z,98106.00
2023-03-12T11:48:37.482Z,98092.00
2023-03-12T11:51:17.954Z,98102.00
2023-03-12T11:53:50.568Z,98092.00
2023-03-12T11:56:43.300Z,98084.00
2023-03-12T11:59:27.447Z,98098.00
2023-03-12T12:02:12.747Z,98091.00
2023-03-12T12:05:04.011Z,98088.00
2023-03-12T12:07:44.302Z,98102.00
2023-03-12T12:10:38.337Z,98115.00
2023-03-12T12:13:16.676Z,98125.00
2023-03-12T12:15:56.953Z,98111.00
2023-03-12T12:19:13.998Z,98097.00
2023-03-12T12:21:58.804Z,98107.00
2023-03-12T12:24:35.403Z,98093.00
2023-03-12T12:27:24.200Z,98100.00
2023-03-12T12:30:22.503Z,98097.00
2023-03-12T12:33:19.507Z,98096.00
2023-03-12T12:35:46.195Z,98096.00
2023-03-12T12:38:15.732Z,98087.00
2023-03-12T12:40:53.521Z,98064.00
2023-03-12T12:43:33.280Z,98074.00
2023-03-12T12:46:04.521Z,98074.00
2023-03-12T12:48:36.346Z,98071.00
2023-03-12T12:51:07.547Z,98073.00
2023-03-12T12:53:50.626Z,98062.00
2023-03-12T12:56:31.042Z,98065.00
2023-03-12T12:59:03.619Z,98049.00
2023-03-12T13:01:32.575Z,98039.00
2023-03-12T13:04:09.618Z,98039.00
2023-03-12T13:06:56.489Z,98046.00
2023-03-12T13:09:44.612Z,98039.00
2023-03-12T13:12:15.940Z,98027.00
2023-03-12T13:14:44.386Z,98036.00
2023-03-12T13:17:44.812Z,98023.00
2023-03-12T13:20:21.055Z,98030.00
2023-03-12T13:23:17.248Z,98041.00
2023-03-12T13:25:57.252Z,98025.00
2023-03-12T13:28:30.307Z,98018.00
2023-03-12T13:30:57.955Z,98021.00
2023-03-12T13:33:56.542Z,98031.00
2023-03-12T13:36:25.212Z,98027.00
2023-03-12T13:39:17.271Z,98027.00
2023-03-12T13:41:55.144Z,98039.00
2023-03-12T13:44:31.264Z,98043.00
2023-03-12T13:47:10.781Z,98050.00
2023-03-12T13:50:04.918Z,98039.00
2023-03-12T13:52:48.646Z,98033.00
2023-03-12T13:55:24.384Z,98041.00
2023-03-12T13:57:55.452Z,98042.00
2023-03-12T14:00:30.980Z,98047.00
2023-03-12T14:03:11.278Z,98047.00
2023-03-12T14:05:45.832Z,98058.00
2023-03-12T14:08:44.694Z,98055.00
2023-03-12T14:11:36.243Z,98056.00
2023-03-12T14:14:24.022Z,98061.00
2023-03-12T14:16:59.795Z,98048.00
2023-03-12T14:19:28.975Z,98041.00
2023-03-12T14:21:59.872Z,98041.00
2023-03-12T14:24:40.610Z,98046.00
2023-03-12T14:27:15.163Z,98054.00
2023-03-12T14:29:45.201Z,98054.00
2023-03-12T14:32:19.311Z,98055.00
2023-03-12T14:35:07.989Z,98055.00
2023-03-12T14:37:45.104Z,98067.00
2023-03-12T14:40:46.757Z,98067.00
2023-03-12T14:43:23.973Z,98061.00
2023-03-12T14:45:54.220Z,98048.00
2023-03-12T14:48:27.590Z,98043.00
2023-03-12T14:50:56.089Z,98041.00
2023-03-12T14:53:29.227Z,98030.00
2023-03-12T14:56:03.144Z,98028.00
2023-03-12T14:58:29.842Z,98025.00
2023-03-12T15:01:05.615Z,98027.00
2023-03-12T15:03:47.031Z,98024.00
2023-03-12T15:06:49.060Z,98028.00
2023-03-12T15:09:22.068Z,98033.00
2023-03-12T15:11:55.486Z,98034.00
2023-03-12T15:14:23.413Z,98035.00
2023-03-12T15:16:50.880Z,98033.00
2023-03-12T15:19:21.892Z,98032.00
2023-03-12T15:21:48.937Z,98036.00
2023-03-12T15:24:16.216Z,98049.00
2023-03-12T15:26:43.825Z,98052.00
2023-03-12T15:29:28.193Z,98050.00
2023-03-12T15:32:00.204Z,98041.00
2023-03-12T15:34:35.224Z,98051.00
2023-03-12T15:37:19.545Z,98036.00
2023-03-12T15:39:49.377Z,98051.00
2023-03-12T15:42:19.494Z,98031.00
2023-03-12T15:44:48.909Z,98036.00
2023-03-12T15:47:20.346Z,98018.00
2023-03-12T15:50:12.680Z,98030.00
2023-03-12T15:52:39.225Z,98027.00
2023-03-12T15:55:11.734Z,98028.00
2023-03-12T15:57:49.945Z,98025.00
2023-03-12T16:00:31.576Z,98027.00
2023-03-12T16:03:00.979Z,98018.00
2023-03-12T16:05:33.510Z,98028.00
2023-03-12T16:08:15.972Z,98024.00
2023-03-12T16:10:42.561Z,98021.00
2023-03-12T16:13:14.149Z,98021.00
2023-03-12T16:15:41.289Z,98021.00
2023-03-12T16:18:14.557Z,98033.00
2023-03-12T16:20:41.737Z,98027.00
2023-03-12T16:23:08.489Z,98022.00
2023-03-12T16:25:35.391Z,98027.00
2023-03-12T16:28:05.534Z,98023.00
2023-03-12T16:30:35.149Z,98029.00
2023-03-12T16:33:08.230Z,98036.00
2023-03-12T16:35:35.422Z,98043.00
2023-03-12T16:38:02.397Z,98030.00
2023-03-12T16:40:34.119Z,98030.00
2023-03-12T16:43:03.654Z,98030.00
2023-03-12T16:45:33.539Z,98035.00
2023-03-12T16:48:02.536Z,98031.00
2023-03-12T16:50:29.293Z,98040.00
2023-03-12T16:52:56.465Z,98038.00
2023-03-12T16:55:43.929Z,98047.00
2023-03-12T16:58:12.930Z,98048.00
2023-03-12T17:00:40.567Z,98044.00
2023-03-12T17:03:07.306Z,98045.00
2023-03-12T17:05:33.853Z,98044.00
2023-03-12T17:08:00.322Z,98045.00
2023-03-12T17:10:26.830Z,98064.00
2023-03-12T17:12:55.631Z,98064.00
2023-03-12T17:15:23.648Z,98067.00
2023-03-12T17:17:50.554Z,98076.00
2023-03-12T17:20:19.401Z,98074.00
2023-03-12T17:22:46.616Z,98068.00
2023-03-12T17:25:25.867Z,98057.00
2023-03-12T17:27:53.150Z,98067.00
2023-03-12T17:30:21.591Z,98067.00
2023-03-12T17:32:48.760Z,98068.00
2023-03-12T17:35:15.630Z,98065.00
2023-03-12T17:37:42.160Z,98076.00
2023-03-12T17:40:09.921Z,98070.00
2023-03-12T17:42:38.356Z,98078.00
2023-03-12T17:45:06.728Z,98082.00
2023-03-12T17:47:33.252Z,98093.00
2023-03-12T17:49:59.729Z,98095.00
2023-03-12T17:52:26.252Z,98102.00
2023-03-12T17:54:52.722Z,98104.00
2023-03-12T17:57:19.203Z,98100.00
2023-03-12T17:59:45.661Z,98113.00
2023-03-12T18:02:14.274Z,98107.00
2023-03-12T18:04:40.909Z,98100.00
2023-03-12T18:07:07.620Z,98101.00
2023-03-12T18:09:34.151Z,98094.00
2023-03-12T18:12:00.622Z,98101.00
2023-03-12T18:14:27.192Z,98100.00
2023-03-12T18:16:53.716Z,98096.00
2023-03-12T18:19:21.699Z,98098.00
2023-03-12T18:21:48.150Z,98094.00
2023-03-12T18:24:14.961Z,98105.00
2023-03-12T18:26:45.231Z,98100.00
2023-03-12T18:29:14.464Z,98109.00
2023-03-12T18:31:42.329Z,98093.00
2023-03-12T18:34:08.924Z,98101.00
2023-03-12T18:36:35.406Z,98105.00
2023-03-12T18:39:04.563Z,98105.00
2023-03-12T18:41:32.793Z,98101.00
2023-03-12T18:44:00.312Z,98104.00
2023-03-12T18:46:27.525Z,98103.00
2023-03-12T18:48:54.065Z,98100.00
2023-03-12T18:51:20.599Z,98100.00
2023-03-12T18:53:47.215Z,98100.00
2023-03-12T18:56:14.114Z,98087.00
2023-03-12T18:58:43.566Z,98093.00
2023-03-12T19:01:10.704Z,98099.00
2023-03-12T19:03:37.219Z,98096.00
2023-03-12T19:06:09.395Z,98105.00
2023-03-12T19:08:39.323Z,98098.00
2023-03-12T19:11:11.445Z,98111.00
2023-03-12T19:13:38.199Z,98098.00
2023-03-12T19:16:08.701Z,98104.00
2023-03-12T19:18:35.968Z,98101.00
2023-03-12T19:21:02.589Z,98101.00
2023-03-12T19:23:29.416Z,98100.00
2023-03-12T19:25:55.886Z,98101.00
2023-03-12T19:28:22.316Z,98107.00
2023-03-12T19:30:48.844Z,98098.00
2023-03-12T19:33:15.465Z,98105.00
2023-03-12T19:35:42.961Z,98094.00
2023-03-12T19:38:09.533Z,98091.00
2023-03-12T19:40:36.101Z,98088.00
2023-03-12T19:43:02.743Z,98094.00
2023-03-12T19:45:29.416Z,98089.00
2023-03-12T19:47:55.933Z,98096.00
2023-03-12T19:50:23.293Z,98097.00
2023-03-12T19:52:49.796Z,98094.00
2023-03-12T19:55:16.460Z,98107.00
2023-03-12T19:57:42.945Z,98094.00
2023-03-12T20:00:12.110Z,98095.00
2023-03-12T20:02:39.311Z,98091.00
2023-03-12T20:05:07.620Z,98101.00
2023-03-12T20:07:34.749Z,98093.00
2023-03-12T20:10:01.755Z,98095.00
2023-03-12T20:12:28.301Z,98092.00
2023-03-12T20:14:54.847Z,98090.00
2023-03-12T20:17:21.310Z,98090.00
2023-03-12T20:19:47.799Z,98087.00
2023-03-12T20:22:14.507Z,98085.00
2023-03-12T20:24:41.094Z,98088.00
2023-03-12T20:27:07.738Z,98084.00
2023-03-12T20:29:34.315Z,98092.00
2023-03-12T20:32:00.904Z,98089.00
2023-03-12T20:34:27.393Z,98085.00
2023-03-12T20:36:53.914Z,98082.00
2023-03-12T20:39:20.626Z,98077.00
2023-03-12T20:41:49.199Z,98083.00
2023-03-12T20:44:15.747Z,98075.00
2023-03-12T20:46:42.268Z,98068.00
2023-03-12T20:49:08.726Z,98076.00
2023-03-12T20:51:35.338Z,98062.00
2023-03-12T20:54:01.806Z,98060.00
2023-03-12T20:56:28.273Z,98064.00
2023-03-12T20:58:54.799Z,98060.00
2023-03-12T21:01:21.422Z,98066.00
2023-03-12T21:03:47.900Z,98059.00
2023-03-12T21:06:14.378Z,98056.00
2023-03-12T21:08:40.892Z,98059.00
2023-03-12T21:11:08.379Z,98053.00
2023-03-12T21:13:36.204Z,98050.00
2023-03-12T21:16:05.683Z,98058.00
2023-03-12T21:18:32.590Z,98047.00
2023-03-12T21:21:06.893Z,98043.00
2023-03-12T21:23:34.997Z,98043.00
2023-03-12T21:26:07.216Z,98034.00
2023-03-12T21:28:35.212Z,98041.00
2023-03-12T21:31:07.323Z,98032.00
2023-03-12T21:33:34.072Z,98035.00
2023-03-12T21:36:04.085Z,98033.00
2023-03-12T21:38:30.554Z,98029.00
2023-03-12T21:40:59.232Z,98025.00
2023-03-12T21:43:29.545Z,98017.00
2023-03-12T21:45:56.055Z,98024.00
2023-03-12T21:48:22.517Z,98016.00
2023-03-12T21:50:49.392Z,98010.00
2023-03-12T21:53:23.491Z,98007.00
2023-03-12T21:55:55.321Z,98004.00
2023-03-12T21:58:21.867Z,97993.00
2023-03-12T22:00:48.314Z,98005.00
2023-03-12T22:03:14.792Z,98003.00
2023-03-12T22:05:41.298Z,98003.00
2023-03-12T22:08:07.821Z,98004.00
2023-03-12T22:10:34.340Z,98016.00
2023-03-12T22:13:00.854Z,98011.00
2023-03-12T22:15:28.299Z,98004.00
2023-03-12T22:17:54.973Z,98009.00
2023-03-12T22:20:21.585Z,98014.00
2023-03-12T22:22:48.109Z,98000.00
2023-03-12T22:25:14.680Z,98000.00
2023-03-12T22:27:41.234Z,97991.00
2023-03-12T22:30:08.694Z,97986.00
2023-03-12T22:32:35.247Z,97991.00
2023-03-12T22:35:01.862Z,97993.00
2023-03-12T22:37:28.406Z,97985.00
2023-03-12T22:39:58.233Z,97987.00
2023-03-12T22:42:24.738Z,97985.00
2023-03-12T22:44:51.228Z,97972.00
2023-03-12T22:47:17.764Z,97979.00
2023-03-12T22:49:44.210Z,97976.00
2023-03-12T22:52:10.645Z,97976.00
2023-03-12T22:54:37.104Z,97974.00
2023-03-12T22:57:04.021Z,97976.00
2023-03-12T22:59:30.505Z,97967.00
2023-03-12T23:01:57.134Z,97976.00
2023-03-12T23:04:23.713Z,97967.00
2023-03-12T23:06:50.295Z,97974.00
2023-03-12T23:09:16.799Z,97973.00
2023-03-12T23:11:43.305Z,97964.00
2023-03-12T23:14:09.836Z,97956.00
2023-03-12T23:16:36.317Z,97965.00
2023-03-12T23:19:02.979Z,97962.00
2023-03-12T23:21:30.670Z,97950.00
2023-03-12T23:23:59.165Z,97949.00
2023-03-12T23:26:27.686Z,97955.00
2023-03-12T23:28:56.072Z,97939.00
2023-03-12T23:31:22.906Z,97941.00
2023-03-12T23:33:49.573Z,97936.00
2023-03-12T23:36:18.385Z,97941.00
2023-03-12T23:38:45.526Z,97922.00
2023-03-12T23:41:18.805Z,97929.00
2023-03-12T23:43:45.905Z,97917.00
2023-03-12T23:46:13.698Z,97917.00
2023-03-12T23:48:40.903Z,97914.00
2023-03-12T23:51:08.708Z,97919.00
2023-03-12T23:53:36.578Z,97907.00
2023-03-12T23:56:05.285Z,97900.00
2023-03-12T23:58:32.547Z,97895.00
